Garrison, Nebraska
Current Conditions -  °F | °C
As of 1:35 AM on Thursday 23 Oct 2014 (Local Time) from KOLU Reporting Station
Overcast Overcast  
Wind Chill: 57°   Ceiling: 1200
Heat Index: 57°   Visibility: 10mi
Dew Point: 52°   Wind: 7mph
Humidity: 82%   Direction: 330°NNW
Pressure: 30.05"   Gusts: NA
Location:  41.1947°N, 97.127°W
Report Text: KOLU 230635Z AUTO 33006KT 10SM BKN012 OVC019 14/11 A3005 RMK AO1
Loading
Personal Weather Stations






























Interactive Weather Map
Tropical Storm Tracking
New forecast layout! Learn more

10-Day Weather Forecast

Advertisements
Track Severe Weather on mobile